Time;durP1;ratioP1;P1;durP2;ratioP2;P2;SDS_P1;SDS_P2;PMS_P1;PMS_P2;Temp;Humidity;BMP_temperature;BMP_pressure;BME280_temperature;BME280_humidity;BME280_pressure;Samples;Min_cycle;Max_cycle;Signal;HPM_P1;HPM_P2
2023/07/22 00:01:31;;;;;;;16.92;12.77;;;;;;;15.04;77.08;101343.19;5060298;28;20098;-49
2023/07/22 00:03:57;;;;;;;16.88;12.70;;;;;;;15.01;77.01;101335.47;5061992;28;20044;-49
2023/07/22 00:06:22;;;;;;;18.00;12.48;;;;;;;15.01;77.17;101336.31;5059871;28;20113;-50
2023/07/22 00:08:47;;;;;;;17.52;12.88;;;;;;;15.00;77.27;101337.28;5063746;28;20103;-52
2023/07/22 00:11:12;;;;;;;16.67;12.77;;;;;;;14.99;77.58;101338.28;5061035;28;20021;-51
2023/07/22 00:13:38;;;;;;;21.48;13.30;;;;;;;14.98;78.15;101340.09;5059940;28;20017;-49
2023/07/22 00:16:04;;;;;;;19.25;13.95;;;;;;;14.97;78.27;101341.09;5064644;28;20029;-50
2023/07/22 00:18:30;;;;;;;15.48;12.85;;;;;;;14.95;78.29;101337.69;5059731;28;20029;-49
2023/07/22 00:20:56;;;;;;;15.65;12.63;;;;;;;14.96;77.58;101338.53;5063640;28;20436;-51
2023/07/22 00:23:22;;;;;;;16.63;12.85;;;;;;;14.93;77.84;101331.63;5063392;28;20074;-52
2023/07/22 00:25:47;;;;;;;16.08;12.93;;;;;;;14.95;77.90;101329.69;5056169;28;20021;-52
2023/07/22 00:28:13;;;;;;;15.75;12.45;;;;;;;14.94;77.63;101327.13;5065405;28;20029;-49
2023/07/22 00:30:38;;;;;;;15.48;12.10;;;;;;;14.94;78.66;101329.81;5056768;28;20029;-53
2023/07/22 00:33:03;;;;;;;15.32;11.68;;;;;;;14.92;78.36;101329.06;5061036;28;20110;-50
2023/07/22 00:35:29;;;;;;;15.07;12.00;;;;;;;14.91;79.05;101330.91;5063061;28;20474;-50
2023/07/22 00:37:54;;;;;;;16.60;11.73;;;;;;;14.89;78.30;101338.22;5059152;28;20040;-52
2023/07/22 00:40:20;;;;;;;15.48;12.25;;;;;;;14.87;77.91;101334.84;5069141;28;20043;-49
2023/07/22 00:42:45;;;;;;;15.95;12.43;;;;;;;14.84;78.91;101328.91;5060594;28;20462;-49
2023/07/22 00:45:11;;;;;;;12.50;11.18;;;;;;;14.84;78.41;101328.91;5064738;28;20095;-50
2023/07/22 00:47:36;;;;;;;15.10;11.70;;;;;;;14.82;78.50;101331.69;5063160;28;20024;-50
2023/07/22 00:50:03;;;;;;;13.98;11.60;;;;;;;14.80;79.11;101331.84;5059641;28;20036;-51
2023/07/22 00:52:29;;;;;;;15.15;11.93;;;;;;;14.80;79.38;101328.31;5062360;28;20028;-52
2023/07/22 00:54:55;;;;;;;16.10;11.57;;;;;;;14.77;79.27;101320.56;5059512;28;20035;-51
2023/07/22 00:57:20;;;;;;;15.18;11.60;;;;;;;14.76;78.84;101324.22;5064631;28;20051;-50
2023/07/22 00:59:46;;;;;;;14.43;11.57;;;;;;;14.75;79.08;101319.84;5058070;28;20020;-50
2023/07/22 01:02:11;;;;;;;15.23;11.70;;;;;;;14.74;80.03;101320.84;5059521;28;20430;-53
2023/07/22 01:04:36;;;;;;;16.05;11.85;;;;;;;14.72;80.78;101320.97;5062019;28;20027;-50
2023/07/22 01:07:07;;;;;;;15.57;11.23;;;;;;;14.71;80.75;101316.59;5064719;28;20048;-50
2023/07/22 01:09:39;;;;;;;16.27;12.50;;;;;;;14.70;80.09;101322.06;5068311;28;20111;-51
2023/07/22 01:12:06;;;;;;;17.58;11.55;;;;;;;14.73;81.02;101319.16;5062733;28;20028;-49
2023/07/22 01:14:33;;;;;;;14.85;12.25;;;;;;;14.66;80.97;101315.31;5058982;28;20112;-53
2023/07/22 01:17:00;;;;;;;14.68;11.70;;;;;;;14.71;80.47;101313.09;5061576;28;20017;-53
2023/07/22 01:19:26;;;;;;;17.15;12.02;;;;;;;14.68;81.76;101313.34;5061113;28;20040;-52
2023/07/22 01:21:52;;;;;;;14.32;12.20;;;;;;;14.70;81.35;101311.38;5058750;28;20078;-50
2023/07/22 01:24:18;;;;;;;15.32;12.30;;;;;;;14.66;81.54;101310.81;5057044;28;20082;-50
2023/07/22 01:26:44;;;;;;;16.40;13.00;;;;;;;14.66;80.21;101307.31;5058220;28;20021;-49
2023/07/22 01:29:09;;;;;;;15.30;12.32;;;;;;;14.66;80.52;101309.97;5060414;28;20056;-50
2023/07/22 01:31:38;;;;;;;15.82;12.35;;;;;;;14.64;81.00;101304.75;5058394;28;20052;-52
2023/07/22 01:34:04;;;;;;;18.42;12.85;;;;;;;14.66;81.27;101304.63;5065063;28;20033;-52
2023/07/22 01:36:29;;;;;;;16.00;12.57;;;;;;;14.60;81.19;101303.31;5057516;28;20472;-52
2023/07/22 01:38:54;;;;;;;15.38;12.75;;;;;;;14.61;80.97;101305.84;5061517;28;20032;-51
2023/07/22 01:41:19;;;;;;;16.25;13.02;;;;;;;14.60;80.70;101301.50;5063680;28;20059;-50
2023/07/22 01:43:45;;;;;;;15.55;13.20;;;;;;;14.59;80.39;101301.63;5058454;28;20072;-50
2023/07/22 01:46:10;;;;;;;16.73;12.27;;;;;;;14.57;80.86;101296.38;5062839;28;20055;-51
2023/07/22 01:48:36;;;;;;;16.50;13.18;;;;;;;14.58;81.90;101297.22;5059394;28;20370;-50
2023/07/22 01:51:02;;;;;;;18.60;13.20;;;;;;;14.58;81.93;101291.88;5058300;28;20037;-50
2023/07/22 01:53:28;;;;;;;17.02;13.23;;;;;;;14.56;80.93;101291.16;5061693;28;20021;-50
2023/07/22 01:55:54;;;;;;;15.90;12.27;;;;;;;14.56;80.78;101289.34;5061106;28;20013;-50
2023/07/22 01:58:19;;;;;;;18.33;13.38;;;;;;;14.55;81.19;101292.13;5058932;28;20033;-50
2023/07/22 02:00:49;;;;;;;16.02;12.68;;;;;;;14.57;81.10;101291.03;5058856;28;20031;-50
2023/07/22 02:03:14;;;;;;;15.18;12.45;;;;;;;14.56;81.41;101289.34;5059352;28;20617;-50
2023/07/22 02:05:40;;;;;;;18.02;13.00;;;;;;;14.54;81.44;101293.13;5057228;28;20112;-50
2023/07/22 02:08:05;;;;;;;16.42;12.82;;;;;;;14.54;81.11;101295.81;5060000;28;20017;-53
2023/07/22 02:10:30;;;;;;;17.00;12.73;;;;;;;14.55;81.30;101284.97;5056897;28;20036;-51
2023/07/22 02:12:56;;;;;;;16.85;12.88;;;;;;;14.53;82.18;101289.59;5054344;28;20031;-52
2023/07/22 02:15:22;;;;;;;17.75;13.18;;;;;;;14.52;82.00;101284.38;5062479;28;20453;-51
2023/07/22 02:17:48;;;;;;;15.32;13.25;;;;;;;14.54;81.32;101285.13;5062492;28;20496;-51
2023/07/22 02:20:13;;;;;;;17.33;12.63;;;;;;;14.54;82.24;101279.78;5059322;28;20048;-49
2023/07/22 02:22:38;;;;;;;16.95;12.20;;;;;;;14.54;82.16;101283.28;5057721;28;20595;-52
2023/07/22 02:25:05;;;;;;;18.55;12.60;;;;;;;14.53;82.36;101276.22;5061051;28;20032;-51
2023/07/22 02:27:30;;;;;;;16.75;13.00;;;;;;;14.52;82.44;101271.88;5058146;28;20021;-51
2023/07/22 02:29:55;;;;;;;19.55;13.18;;;;;;;14.50;82.56;101276.50;5055324;28;20573;-49
2023/07/22 02:32:21;;;;;;;17.98;13.35;;;;;;;14.50;82.16;101284.50;5059249;28;20498;-50
2023/07/22 02:34:46;;;;;;;17.85;13.15;;;;;;;14.50;82.56;101283.66;5060684;28;20087;-52
2023/07/22 02:37:11;;;;;;;16.45;12.27;;;;;;;14.50;82.44;101276.50;5059077;28;20067;-50
2023/07/22 02:39:37;;;;;;;17.52;13.18;;;;;;;14.47;82.85;101270.56;5059672;28;20029;-50
2023/07/22 02:42:02;;;;;;;14.77;12.50;;;;;;;14.46;82.69;101276.91;5061465;28;20032;-51
2023/07/22 02:44:27;;;;;;;17.58;12.70;;;;;;;14.44;82.78;101277.88;5061590;28;20036;-51
2023/07/22 02:46:53;;;;;;;16.23;12.30;;;;;;;14.42;82.96;101281.66;5064587;28;20028;-53
2023/07/22 02:49:18;;;;;;;17.73;13.07;;;;;;;14.38;83.62;101275.72;5064456;28;20036;-53
2023/07/22 02:51:43;;;;;;;17.67;12.52;;;;;;;14.35;82.73;101275.97;5065570;28;20028;-50
2023/07/22 02:54:09;;;;;;;18.20;13.27;;;;;;;14.32;83.55;101276.28;5061674;28;20025;-53
2023/07/22 02:56:34;;;;;;;18.58;12.93;;;;;;;14.30;83.95;101280.03;5063846;28;20052;-52
2023/07/22 02:58:59;;;;;;;18.85;12.35;;;;;;;14.27;84.37;101281.13;5060108;28;20100;-52
2023/07/22 03:01:25;;;;;;;18.50;12.40;;;;;;;14.23;84.11;101277.88;5063686;28;20071;-53
2023/07/22 03:03:51;;;;;;;17.38;11.85;;;;;;;14.18;83.82;101276.59;5062584;28;20021;-50
2023/07/22 03:06:16;;;;;;;16.50;13.10;;;;;;;14.16;83.28;101270.53;5062992;28;20033;-52
2023/07/22 03:08:41;;;;;;;17.45;12.65;;;;;;;14.11;84.51;101273.59;5063320;28;20544;-50
2023/07/22 03:11:07;;;;;;;18.75;12.63;;;;;;;14.04;84.56;101281.28;5062002;28;20036;-50
2023/07/22 03:13:33;;;;;;;15.15;12.13;;;;;;;14.06;83.93;101283.81;5065158;28;20467;-50
2023/07/22 03:15:59;;;;;;;16.38;12.27;;;;;;;14.00;84.49;101287.84;5064599;28;20469;-52
2023/07/22 03:18:24;;;;;;;17.00;12.38;;;;;;;13.97;84.67;101281.91;5060453;28;20024;-52
2023/07/22 03:20:49;;;;;;;15.52;12.52;;;;;;;13.90;84.60;101283.41;5061268;28;20047;-49
2023/07/22 03:23:15;;;;;;;19.70;13.18;;;;;;;13.88;86.37;101289.72;5062927;28;20029;-51
2023/07/22 03:25:41;;;;;;;18.02;12.35;;;;;;;13.86;85.40;101289.00;5062183;28;20021;-50
2023/07/22 03:28:07;;;;;;;16.48;12.55;;;;;;;13.77;86.54;101291.59;5060950;28;20040;-50
2023/07/22 03:30:33;;;;;;;16.48;12.38;;;;;;;13.74;86.34;101303.38;5062039;28;20029;-49
2023/07/22 03:33:00;;;;;;;17.33;12.18;;;;;;;13.73;86.08;101300.84;5058318;28;20057;-51
2023/07/22 03:35:25;;;;;;;15.30;11.73;;;;;;;13.70;86.57;101288.59;5062984;28;20036;-50
2023/07/22 03:37:51;;;;;;;18.42;12.43;;;;;;;13.68;85.97;101294.03;5062873;28;20058;-49
2023/07/22 03:40:30;;;;;;;17.73;12.93;;;;;;;13.66;86.24;101301.34;5059180;28;20378;-50
2023/07/22 03:42:57;;;;;;;18.40;12.90;;;;;;;13.64;87.24;101302.47;5063461;28;20462;-50
2023/07/22 03:45:23;;;;;;;18.92;11.93;;;;;;;13.61;86.25;101300.88;5057716;28;20503;-51
2023/07/22 03:47:55;;;;;;;17.02;12.25;;;;;;;13.56;86.66;101296.91;5058882;28;20052;-50
2023/07/22 03:50:21;;;;;;;18.60;12.40;;;;;;;13.53;87.07;101295.31;5061875;28;20020;-49
2023/07/22 03:52:46;;;;;;;17.65;12.07;;;;;;;13.53;87.43;101299.81;5059118;28;20031;-50
2023/07/22 03:55:11;;;;;;;15.60;11.93;;;;;;;13.51;87.53;101306.13;5061637;28;20110;-50
2023/07/22 03:57:37;;;;;;;18.60;12.73;;;;;;;13.45;87.45;101295.94;5058306;28;20385;-50
2023/07/22 04:00:03;;;;;;;15.52;11.88;;;;;;;13.41;88.18;101293.66;5060614;28;20124;-49
2023/07/22 04:02:29;;;;;;;19.15;13.45;;;;;;;13.42;88.00;101303.34;5060892;28;20027;-53
2023/07/22 04:04:55;;;;;;;17.02;12.65;;;;;;;13.38;87.96;101300.09;5061886;28;20025;-52
2023/07/22 04:07:21;;;;;;;17.48;11.90;;;;;;;13.41;88.01;101299.00;5060805;28;20029;-49
2023/07/22 04:09:47;;;;;;;16.67;13.15;;;;;;;13.39;88.98;101288.44;5058224;28;20060;-50
2023/07/22 04:12:12;;;;;;;17.88;12.73;;;;;;;13.36;87.74;101290.53;5062191;28;20032;-51
2023/07/22 04:14:38;;;;;;;18.45;12.15;;;;;;;13.33;88.89;101292.44;5060110;28;20033;-53
2023/07/22 04:17:04;;;;;;;15.70;11.80;;;;;;;13.35;88.45;101292.31;5060520;28;20055;-52
2023/07/22 04:19:30;;;;;;;16.23;12.20;;;;;;;13.36;88.80;101298.53;5065309;28;20109;-51
2023/07/22 04:21:55;;;;;;;15.40;11.90;;;;;;;13.31;88.51;101296.19;5063143;28;20033;-51
2023/07/22 04:24:20;;;;;;;17.33;12.60;;;;;;;13.32;88.50;101303.25;5058684;28;20079;-50
2023/07/22 04:26:46;;;;;;;19.45;12.65;;;;;;;13.28;89.17;101299.09;5055826;28;20029;-50
2023/07/22 04:29:12;;;;;;;21.55;12.90;;;;;;;13.29;89.02;101299.00;5058502;28;20486;-50
2023/07/22 04:31:37;;;;;;;16.48;11.65;;;;;;;13.27;88.50;101297.41;5020969;28;1045544;-49
2023/07/22 04:34:03;;;;;;;17.40;12.40;;;;;;;13.29;89.08;101304.31;5063187;28;20485;-51
2023/07/22 04:36:28;;;;;;;14.98;12.13;;;;;;;13.30;90.13;101300.66;5059050;28;20032;-52
2023/07/22 04:38:53;;;;;;;16.55;12.25;;;;;;;13.30;89.27;101305.16;5064745;28;20025;-50
2023/07/22 04:41:19;;;;;;;15.75;12.25;;;;;;;13.30;89.57;101302.50;5057844;28;20439;-52
2023/07/22 04:43:44;;;;;;;17.92;12.30;;;;;;;13.27;90.39;101306.28;5058806;28;20034;-52
2023/07/22 04:46:10;;;;;;;16.63;11.68;;;;;;;13.34;89.48;101306.66;5062723;28;20386;-50
2023/07/22 04:48:36;;;;;;;17.30;12.82;;;;;;;13.33;89.87;101299.63;5067938;28;20104;-50
2023/07/22 04:51:02;;;;;;;17.75;13.15;;;;;;;13.38;90.12;101297.41;5060064;28;20033;-51
2023/07/22 04:53:27;;;;;;;18.20;12.65;;;;;;;13.42;90.87;101301.53;5059176;28;20094;-51
2023/07/22 04:55:54;;;;;;;17.60;12.25;;;;;;;13.46;90.27;101307.47;5061631;28;20053;-49
2023/07/22 04:58:20;;;;;;;16.70;12.75;;;;;;;13.51;90.14;101314.13;5059308;28;20040;-50
2023/07/22 05:00:46;;;;;;;18.15;12.70;;;;;;;13.55;91.12;101314.72;5061463;28;20021;-53
2023/07/22 05:03:11;;;;;;;17.30;12.50;;;;;;;13.62;91.11;101317.72;5060289;28;20099;-52
2023/07/22 05:05:36;;;;;;;15.27;12.10;;;;;;;13.64;89.85;101313.13;5062396;28;20613;-53
2023/07/22 05:08:02;;;;;;;17.80;12.77;;;;;;;13.69;90.45;101310.94;5062264;28;20423;-53
2023/07/22 05:10:28;;;;;;;16.15;12.23;;;;;;;13.73;90.54;101317.69;5063830;28;20044;-50
2023/07/22 05:12:54;;;;;;;19.80;12.40;;;;;;;13.74;89.30;101313.19;5063224;28;20461;-49
2023/07/22 05:15:20;;;;;;;16.35;12.63;;;;;;;13.76;89.73;101306.78;5065313;28;20045;-51
2023/07/22 05:17:46;;;;;;;18.85;12.23;;;;;;;13.82;89.45;101316.09;5062593;28;20088;-49
2023/07/22 05:20:12;;;;;;;18.30;13.60;;;;;;;13.85;89.68;101318.50;5061076;28;20081;-49
2023/07/22 05:22:39;;;;;;;21.83;12.60;;;;;;;13.90;90.35;101318.13;5066103;28;20040;-50
2023/07/22 05:25:05;;;;;;;16.45;12.38;;;;;;;13.96;90.18;101314.97;5067400;28;20047;-49
2023/07/22 05:27:31;;;;;;;17.83;12.18;;;;;;;14.01;89.39;101316.25;5063439;28;20413;-50
2023/07/22 05:29:56;;;;;;;15.95;11.75;;;;;;;14.05;89.19;101315.03;5054360;28;20110;-52
2023/07/22 05:32:21;;;;;;;16.30;11.65;;;;;;;14.10;89.22;101311.97;5060053;28;20776;-51
2023/07/22 05:34:46;;;;;;;19.77;12.40;;;;;;;14.18;89.98;101309.50;5055630;28;20021;-50
2023/07/22 05:37:12;;;;;;;15.20;12.35;;;;;;;14.28;89.36;101308.72;5065904;28;20064;-50
2023/07/22 05:39:37;;;;;;;16.83;12.05;;;;;;;14.40;88.87;101305.81;5057578;28;20115;-50
2023/07/22 05:42:03;;;;;;;15.65;11.77;;;;;;;14.51;89.16;101312.09;5067831;28;20025;-52
2023/07/22 05:44:28;;;;;;;19.83;12.70;;;;;;;14.57;88.29;101315.09;5065172;28;20028;-50
2023/07/22 05:46:53;;;;;;;17.75;12.05;;;;;;;14.66;89.08;101308.13;5069102;28;20434;-53
2023/07/22 05:49:19;;;;;;;18.67;12.63;;;;;;;14.73;88.23;101311.97;5068255;28;20032;-53
2023/07/22 05:51:44;;;;;;;25.83;12.88;;;;;;;14.79;87.67;101316.78;5072036;28;20032;-51
2023/07/22 05:54:09;;;;;;;16.38;12.00;;;;;;;14.88;87.39;101311.63;5062570;28;20032;-53
2023/07/22 05:56:34;;;;;;;17.63;12.13;;;;;;;15.01;87.17;101303.38;5066280;28;20029;-54
2023/07/22 05:59:00;;;;;;;16.55;12.32;;;;;;;15.14;87.45;101303.97;5067578;28;20386;-50
2023/07/22 06:01:25;;;;;;;16.38;12.00;;;;;;;15.29;86.70;101302.59;5056888;28;20501;-51
2023/07/22 06:03:51;;;;;;;20.88;12.65;;;;;;;15.41;85.12;101306.00;5055477;28;20032;-52
2023/07/22 06:06:16;;;;;;;16.27;12.15;;;;;;;15.57;85.90;101297.44;5053256;28;20021;-52
2023/07/22 06:08:42;;;;;;;17.55;11.45;;;;;;;15.73;85.28;101296.88;5055958;28;20397;-52
2023/07/22 06:11:07;;;;;;;16.33;11.98;;;;;;;15.90;84.78;101300.72;5058220;28;20124;-52
2023/07/22 06:13:33;;;;;;;19.65;12.32;;;;;;;16.08;83.88;101303.53;5058647;28;20542;-52
2023/07/22 06:15:58;;;;;;;16.42;12.65;;;;;;;16.24;83.26;101295.75;5054757;28;20020;-51
2023/07/22 06:18:23;;;;;;;17.15;12.18;;;;;;;16.36;83.12;101295.59;5061259;28;20058;-52
2023/07/22 06:20:49;;;;;;;19.60;13.40;;;;;;;16.52;83.53;101298.53;5055636;28;20040;-52
2023/07/22 06:23:14;;;;;;;15.40;11.57;;;;;;;16.66;82.43;101297.22;5061255;28;20078;-51
2023/07/22 06:25:39;;;;;;;21.63;13.48;;;;;;;16.78;81.76;101295.19;5060500;28;20029;-52
2023/07/22 06:28:06;;;;;;;20.13;12.40;;;;;;;16.89;81.08;101294.22;5060738;28;20285;-51
2023/07/22 06:30:32;;;;;;;17.77;12.82;;;;;;;16.98;81.09;101295.97;5054880;28;20075;-51
2023/07/22 06:32:57;;;;;;;20.23;12.63;;;;;;;17.06;80.67;101289.88;5054894;28;20467;-52
2023/07/22 06:35:22;;;;;;;21.38;13.10;;;;;;;17.11;79.98;101295.66;5050794;28;20043;-51
2023/07/22 06:37:48;;;;;;;17.65;12.77;;;;;;;17.20;80.58;101287.53;5053874;28;20037;-51
2023/07/22 06:40:13;;;;;;;21.02;13.30;;;;;;;17.30;80.19;101290.19;5053306;28;20021;-52
2023/07/22 06:42:38;;;;;;;17.92;12.82;;;;;;;17.55;79.10;101285.03;5053255;28;20085;-54
2023/07/22 06:45:05;;;;;;;18.60;12.93;;;;;;;17.59;78.76;101286.44;5048213;28;20036;-52
2023/07/22 06:47:30;;;;;;;19.63;13.13;;;;;;;17.65;79.70;101279.59;5054071;28;20025;-52
2023/07/22 06:49:55;;;;;;;16.63;12.88;;;;;;;17.76;78.40;101284.75;5055717;28;20504;-52
2023/07/22 06:52:21;;;;;;;19.58;13.30;;;;;;;17.86;77.80;101282.00;5053626;28;20045;-50
2023/07/22 06:54:46;;;;;;;18.63;13.02;;;;;;;17.99;77.19;101281.63;5050497;28;20119;-51
2023/07/22 06:57:11;;;;;;;22.63;13.23;;;;;;;18.16;76.40;101288.81;5054085;28;20109;-51
2023/07/22 06:59:37;;;;;;;20.60;13.52;;;;;;;18.29;75.32;101285.72;5050513;28;20112;-53
2023/07/22 07:02:04;;;;;;;18.30;12.52;;;;;;;18.38;75.89;101273.16;5052891;28;20112;-53
2023/07/22 07:04:29;;;;;;;17.65;11.98;;;;;;;18.38;75.24;101282.06;5049985;28;20088;-54
2023/07/22 07:06:55;;;;;;;19.00;12.23;;;;;;;18.55;75.14;101274.97;5056151;28;20498;-53
2023/07/22 07:09:20;;;;;;;18.05;11.80;;;;;;;18.78;74.63;101277.09;5070767;28;20028;-53
2023/07/22 07:11:45;;;;;;;22.13;12.20;;;;;;;18.80;73.87;101278.63;5057573;28;20020;-53
2023/07/22 07:14:11;;;;;;;17.08;11.90;;;;;;;18.82;74.15;101281.16;5054337;28;20039;-51
2023/07/22 07:16:37;;;;;;;17.25;11.27;;;;;;;18.92;73.39;101279.22;5063517;28;20446;-50
2023/07/22 07:19:02;;;;;;;18.17;11.93;;;;;;;18.89;73.30;101276.84;5058327;28;20099;-54
2023/07/22 07:21:28;;;;;;;20.50;12.48;;;;;;;18.89;73.89;101270.63;5056669;28;20114;-52
2023/07/22 07:23:54;;;;;;;19.05;12.18;;;;;;;18.86;74.23;101279.84;5055658;28;20025;-53
2023/07/22 07:26:21;;;;;;;18.73;11.68;;;;;;;18.84;73.91;101273.78;5058258;28;20035;-52
2023/07/22 07:28:50;;;;;;;21.08;11.80;;;;;;;18.95;74.17;101276.19;5084611;28;20066;-50
2023/07/22 07:31:16;;;;;;;15.57;11.13;;;;;;;18.91;74.11;101274.81;5062013;28;20512;-49
2023/07/22 07:33:42;;;;;;;18.98;10.95;;;;;;;18.88;74.42;101266.22;5056949;28;20025;-50
2023/07/22 07:36:07;;;;;;;17.98;11.18;;;;;;;18.95;73.93;101269.94;5063509;28;20020;-50
2023/07/22 07:38:32;;;;;;;19.45;11.05;;;;;;;19.00;74.60;101273.88;5059774;28;20027;-50
2023/07/22 07:41:00;;;;;;;17.85;10.23;;;;;;;19.00;75.36;101279.25;5060943;28;20119;-53
2023/07/22 07:43:26;;;;;;;20.17;10.88;;;;;;;19.04;73.81;101279.75;5063199;28;20136;-51
2023/07/22 07:46:17;;;;;;;20.15;11.00;;;;;;;19.19;75.16;101279.97;5064489;28;20021;-49
2023/07/22 07:48:43;;;;;;;18.00;9.98;;;;;;;19.22;74.10;101275.09;5061656;28;20037;-51
2023/07/22 07:51:08;;;;;;;15.40;10.55;;;;;;;19.29;73.53;101277.16;5058150;28;20099;-50
2023/07/22 07:53:33;;;;;;;18.88;10.50;;;;;;;19.43;72.93;101281.88;5061318;28;20116;-51
2023/07/22 07:55:58;;;;;;;16.02;10.15;;;;;;;19.56;72.59;101273.31;5060433;28;20064;-54
2023/07/22 07:58:24;;;;;;;13.30;9.52;;;;;;;19.66;71.52;101284.78;5057558;28;20572;-51
2023/07/22 08:00:49;;;;;;;15.07;10.40;;;;;;;19.71;71.87;101285.13;5060321;28;20064;-52
2023/07/22 08:03:15;;;;;;;16.05;10.10;;;;;;;19.79;71.38;101284.34;5059577;28;20474;-52
2023/07/22 08:05:40;;;;;;;18.77;10.15;;;;;;;19.71;72.11;101284.28;5060349;28;20028;-52
2023/07/22 08:08:06;;;;;;;13.65;9.10;;;;;;;19.81;71.35;101278.78;5063038;28;20055;-51
2023/07/22 08:10:32;;;;;;;16.25;10.32;;;;;;;19.90;71.88;101277.75;5034358;28;20453;-50
2023/07/22 08:12:57;;;;;;;15.32;9.73;;;;;;;20.01;69.43;101277.41;5054037;28;20031;-52
2023/07/22 08:15:23;;;;;;;15.82;10.00;;;;;;;20.02;70.55;101279.13;5063166;28;20040;-54
2023/07/22 08:17:48;;;;;;;16.02;10.32;;;;;;;20.13;69.30;101281.47;5062597;28;20021;-50
2023/07/22 08:20:13;;;;;;;16.20;10.10;;;;;;;20.20;69.78;101275.38;5057495;28;21385;-49
2023/07/22 08:22:39;;;;;;;16.27;9.98;;;;;;;20.19;68.68;101277.25;5058791;28;20102;-52
2023/07/22 08:25:05;;;;;;;14.40;8.85;;;;;;;20.30;68.04;101287.69;5059419;28;20031;-52
2023/07/22 08:27:30;;;;;;;12.05;8.60;;;;;;;20.41;67.85;101289.19;5058692;28;20366;-52
2023/07/22 08:29:55;;;;;;;14.93;9.43;;;;;;;20.57;65.68;101292.84;5054478;28;20031;-52
2023/07/22 08:32:20;;;;;;;14.43;9.33;;;;;;;20.64;66.66;101283.09;5059990;28;20049;-51
2023/07/22 08:34:46;;;;;;;12.00;8.55;;;;;;;20.88;65.08;101293.81;5063359;28;20279;-52
2023/07/22 08:37:11;;;;;;;12.63;8.50;;;;;;;21.15;64.47;101285.41;5053420;28;20024;-51
2023/07/22 08:39:37;;;;;;;12.68;8.15;;;;;;;21.48;63.24;101282.56;5061201;28;20025;-52
2023/07/22 08:42:04;;;;;;;17.77;7.88;;;;;;;21.85;62.86;101280.94;5053641;28;20029;-53
2023/07/22 08:44:34;;;;;;;14.02;7.90;;;;;;;22.11;62.90;101280.56;5061433;28;20048;-51
2023/07/22 08:46:59;;;;;;;13.30;7.32;;;;;;;22.41;58.99;101283.34;5058663;28;20028;-53
2023/07/22 08:49:26;;;;;;;12.10;6.95;;;;;;;22.35;59.02;101276.81;5058743;28;20496;-52
2023/07/22 08:51:54;;;;;;;12.10;7.32;;;;;;;22.47;57.02;101282.63;5060672;28;20032;-53
2023/07/22 08:54:20;;;;;;;13.02;7.40;;;;;;;22.70;58.82;101283.38;5053243;28;20024;-54
2023/07/22 08:56:45;;;;;;;12.65;6.80;;;;;;;23.06;58.30;101285.31;5057032;28;20504;-53
2023/07/22 08:59:12;;;;;;;10.32;6.60;;;;;;;23.24;57.49;101281.38;5059168;28;20025;-52
2023/07/22 09:01:39;;;;;;;10.85;7.47;;;;;;;23.36;55.99;101282.53;5059144;28;20114;-52
2023/07/22 09:04:05;;;;;;;11.07;6.60;;;;;;;23.20;54.37;101280.06;5063231;28;20370;-52
2023/07/22 09:06:31;;;;;;;10.32;6.32;;;;;;;23.15;53.46;101274.38;5058573;28;20028;-51
2023/07/22 09:08:57;;;;;;;12.07;6.95;;;;;;;23.13;54.22;101282.69;5060229;28;20032;-52
2023/07/22 09:11:24;;;;;;;9.18;5.63;;;;;;;23.25;55.29;101283.06;5058851;28;20020;-51
2023/07/22 09:13:51;;;;;;;7.50;5.35;;;;;;;23.26;52.73;101285.56;5064374;28;20052;-51
2023/07/22 09:16:17;;;;;;;7.93;5.55;;;;;;;23.31;52.76;101284.97;5059973;28;20035;-54
2023/07/22 09:18:42;;;;;;;9.93;5.63;;;;;;;23.41;53.04;101282.78;5057004;28;20032;-51
2023/07/22 09:21:08;;;;;;;9.82;5.60;;;;;;;23.55;54.41;101274.81;5051391;28;20129;-51
2023/07/22 09:23:38;;;;;;;8.25;5.03;;;;;;;23.75;53.39;101264.19;5057770;28;20032;-52
2023/07/22 09:26:10;;;;;;;8.27;5.00;;;;;;;23.68;52.16;101271.38;5062215;28;20051;-51
2023/07/22 09:28:49;;;;;;;8.32;4.60;;;;;;;23.74;53.64;101281.47;5063548;28;20062;-51
2023/07/22 09:31:15;;;;;;;11.00;5.30;;;;;;;23.69;52.60;101273.91;5060620;28;20512;-53
2023/07/22 09:33:40;;;;;;;9.82;4.85;;;;;;;23.59;52.31;101273.41;5052405;28;20037;-53
2023/07/22 09:36:05;;;;;;;7.53;4.82;;;;;;;23.61;52.38;101272.16;5055179;28;20025;-53
2023/07/22 09:38:31;;;;;;;10.48;5.22;;;;;;;23.61;52.13;101271.31;5058047;28;20435;-51
2023/07/22 09:40:56;;;;;;;10.02;5.03;;;;;;;23.51;53.27;101271.63;5056712;28;20074;-55
2023/07/22 09:43:23;;;;;;;9.80;4.57;;;;;;;23.48;52.62;101271.19;5061708;28;20032;-53
2023/07/22 09:45:49;;;;;;;8.73;5.03;;;;;;;23.47;53.48;101264.94;5057676;28;20040;-53
2023/07/22 09:48:14;;;;;;;11.40;5.30;;;;;;;23.42;53.84;101268.22;5058459;28;20029;-55
2023/07/22 09:50:40;;;;;;;10.80;5.20;;;;;;;23.37;54.26;101270.69;5059539;28;20028;-55
2023/07/22 09:53:06;;;;;;;10.05;5.47;;;;;;;23.36;54.08;101263.56;5059897;28;20037;-52
2023/07/22 09:55:33;;;;;;;11.23;4.80;;;;;;;23.38;54.26;101261.53;5056539;28;20024;-53
2023/07/22 09:58:03;;;;;;;9.13;4.22;;;;;;;23.28;53.46;101255.53;5054020;28;20028;-54
2023/07/22 10:00:30;;;;;;;11.02;3.95;;;;;;;23.28;53.68;101261.81;5058223;28;21261;-52
2023/07/22 10:03:00;;;;;;;7.38;4.10;;;;;;;23.26;54.91;101263.91;5058987;28;20088;-52
2023/07/22 10:05:28;;;;;;;7.05;4.15;;;;;;;23.30;54.54;101258.94;5057503;28;20048;-52
2023/07/22 10:07:56;;;;;;;43.42;6.07;;;;;;;23.31;54.71;101263.28;5060864;28;20108;-54
2023/07/22 10:10:34;;;;;;;10.03;4.50;;;;;;;23.34;54.17;101268.34;5053449;28;20466;-55
2023/07/22 10:13:00;;;;;;;8.30;4.45;;;;;;;23.18;54.01;101265.84;5061696;28;20064;-53
2023/07/22 10:15:29;;;;;;;9.60;4.75;;;;;;;23.22;55.50;101259.03;5056506;28;20107;-54
2023/07/22 10:17:56;;;;;;;6.07;3.80;;;;;;;23.24;53.75;101259.69;5063618;28;20027;-52
2023/07/22 10:20:22;;;;;;;6.30;3.63;;;;;;;23.20;54.22;101259.22;5050767;28;20107;-54
2023/07/22 10:22:47;;;;;;;7.80;3.42;;;;;;;23.18;52.13;101257.72;5065017;28;20568;-54
2023/07/22 10:25:16;;;;;;;11.18;3.33;;;;;;;23.18;51.64;101260.44;5055829;28;20124;-55
2023/07/22 10:27:43;;;;;;;10.23;3.55;;;;;;;23.16;51.56;101265.22;5060852;28;20115;-53
2023/07/22 10:30:09;;;;;;;5.63;2.67;;;;;;;23.28;52.72;101261.81;5054156;28;20025;-53
2023/07/22 10:32:39;;;;;;;5.88;2.38;;;;;;;23.28;51.40;101253.69;5054856;28;20055;-53
2023/07/22 10:35:10;;;;;;;4.65;2.63;;;;;;;23.13;49.65;101261.00;5054284;28;20029;-54
2023/07/22 10:37:37;;;;;;;5.60;2.70;;;;;;;23.19;50.45;101264.84;5055462;28;20028;-55
2023/07/22 10:40:24;;;;;;;5.95;2.78;;;;;;;23.38;51.89;101264.22;5066383;28;20032;-52
2023/07/22 10:43:05;;;;;;;5.53;2.28;;;;;;;23.59;51.27;101260.66;5064354;28;20469;-52
2023/07/22 10:45:40;;;;;;;4.72;2.65;;;;;;;23.78;50.56;101248.34;5062615;28;20075;-52
2023/07/22 10:48:09;;;;;;;3.55;2.40;;;;;;;23.82;48.85;101246.13;5053950;28;20029;-52
2023/07/22 10:50:57;;;;;;;6.75;3.20;;;;;;;23.95;49.54;101240.81;5057660;28;20062;-52
2023/07/22 10:53:25;;;;;;;4.53;2.20;;;;;;;24.05;47.38;101243.19;5051366;28;20033;-55
2023/07/22 10:56:08;;;;;;;4.55;2.35;;;;;;;24.14;48.06;101249.28;5058189;28;20025;-55
2023/07/22 10:58:54;;;;;;;3.90;1.92;;;;;;;24.17;48.04;101241.59;5055463;28;20021;-52
2023/07/22 11:01:28;;;;;;;4.78;2.20;;;;;;;24.07;48.17;101259.25;5058064;28;20028;-55
2023/07/22 11:04:18;;;;;;;5.38;2.47;;;;;;;24.12;48.21;101246.75;5063681;28;20028;-54
2023/07/22 11:06:43;;;;;;;4.65;2.10;;;;;;;24.04;47.28;101244.19;5058933;28;20047;-54
2023/07/22 11:09:34;;;;;;;4.27;1.77;;;;;;;24.10;48.94;101247.97;5065934;28;20033;-53